sensor_id;sensor_type;location;lat;lon;timestamp;temperature;humidity
9837;DHT22;4957;51.412;6.724;2023-04-25T00:00:26;8.80;94.60
9837;DHT22;4957;51.412;6.724;2023-04-25T00:02:52;8.70;94.60
9837;DHT22;4957;51.412;6.724;2023-04-25T00:05:18;8.70;94.80
9837;DHT22;4957;51.412;6.724;2023-04-25T00:07:44;8.70;94.90
9837;DHT22;4957;51.412;6.724;2023-04-25T00:10:11;8.70;95.00
9837;DHT22;4957;51.412;6.724;2023-04-25T00:12:37;8.70;95.10
9837;DHT22;4957;51.412;6.724;2023-04-25T00:15:03;8.80;95.20
9837;DHT22;4957;51.412;6.724;2023-04-25T00:17:29;8.70;95.30
9837;DHT22;4957;51.412;6.724;2023-04-25T00:19:55;8.80;95.40
9837;DHT22;4957;51.412;6.724;2023-04-25T00:22:21;8.70;95.40
9837;DHT22;4957;51.412;6.724;2023-04-25T00:24:47;8.80;95.50
9837;DHT22;4957;51.412;6.724;2023-04-25T00:27:12;8.80;95.50
9837;DHT22;4957;51.412;6.724;2023-04-25T00:29:38;8.80;95.60
9837;DHT22;4957;51.412;6.724;2023-04-25T00:32:04;8.80;95.50
9837;DHT22;4957;51.412;6.724;2023-04-25T00:34:30;8.80;95.70
9837;DHT22;4957;51.412;6.724;2023-04-25T00:36:55;8.80;95.70
9837;DHT22;4957;51.412;6.724;2023-04-25T00:39:22;8.80;95.70
9837;DHT22;4957;51.412;6.724;2023-04-25T00:41:48;8.80;95.80
9837;DHT22;4957;51.412;6.724;2023-04-25T00:44:15;8.80;95.90
9837;DHT22;4957;51.412;6.724;2023-04-25T00:46:42;8.80;95.90
9837;DHT22;4957;51.412;6.724;2023-04-25T00:49:08;8.80;95.90
9837;DHT22;4957;51.412;6.724;2023-04-25T00:51:34;8.80;95.80
9837;DHT22;4957;51.412;6.724;2023-04-25T00:54:01;8.80;95.90
9837;DHT22;4957;51.412;6.724;2023-04-25T00:56:27;8.80;95.90
9837;DHT22;4957;51.412;6.724;2023-04-25T00:58:53;8.80;95.90
9837;DHT22;4957;51.412;6.724;2023-04-25T01:01:22;8.80;95.90
9837;DHT22;4957;51.412;6.724;2023-04-25T01:03:49;8.80;95.90
9837;DHT22;4957;51.412;6.724;2023-04-25T01:06:16;8.80;95.90
9837;DHT22;4957;51.412;6.724;2023-04-25T01:08:41;8.80;96.00
9837;DHT22;4957;51.412;6.724;2023-04-25T01:11:07;8.80;96.00
9837;DHT22;4957;51.412;6.724;2023-04-25T01:13:34;8.80;96.10
9837;DHT22;4957;51.412;6.724;2023-04-25T01:16:00;8.80;96.10
9837;DHT22;4957;51.412;6.724;2023-04-25T01:18:26;8.80;96.20
9837;DHT22;4957;51.412;6.724;2023-04-25T01:20:53;8.80;96.30
9837;DHT22;4957;51.412;6.724;2023-04-25T01:23:20;8.80;96.30
9837;DHT22;4957;51.412;6.724;2023-04-25T01:25:47;8.80;96.30
9837;DHT22;4957;51.412;6.724;2023-04-25T01:28:13;8.80;96.40
9837;DHT22;4957;51.412;6.724;2023-04-25T01:30:40;8.80;96.40
9837;DHT22;4957;51.412;6.724;2023-04-25T01:33:07;8.80;96.50
9837;DHT22;4957;51.412;6.724;2023-04-25T01:35:33;8.80;96.50
9837;DHT22;4957;51.412;6.724;2023-04-25T01:37:59;8.80;96.60
9837;DHT22;4957;51.412;6.724;2023-04-25T01:40:25;8.80;96.60
9837;DHT22;4957;51.412;6.724;2023-04-25T01:42:51;8.90;96.70
9837;DHT22;4957;51.412;6.724;2023-04-25T01:45:18;8.90;96.70
9837;DHT22;4957;51.412;6.724;2023-04-25T01:47:44;8.90;96.70
9837;DHT22;4957;51.412;6.724;2023-04-25T01:50:14;8.90;96.70
9837;DHT22;4957;51.412;6.724;2023-04-25T01:52:40;8.90;96.70
9837;DHT22;4957;51.412;6.724;2023-04-25T01:55:06;8.90;96.80
9837;DHT22;4957;51.412;6.724;2023-04-25T01:57:32;8.90;96.70
9837;DHT22;4957;51.412;6.724;2023-04-25T02:00:00;8.90;96.70
9837;DHT22;4957;51.412;6.724;2023-04-25T02:02:26;8.90;96.80
9837;DHT22;4957;51.412;6.724;2023-04-25T02:04:52;8.90;96.80
9837;DHT22;4957;51.412;6.724;2023-04-25T02:07:17;9.00;96.90
9837;DHT22;4957;51.412;6.724;2023-04-25T02:09:43;9.00;96.90
9837;DHT22;4957;51.412;6.724;2023-04-25T02:12:10;9.00;96.90
9837;DHT22;4957;51.412;6.724;2023-04-25T02:14:36;9.00;96.90
9837;DHT22;4957;51.412;6.724;2023-04-25T02:17:02;9.00;96.90
9837;DHT22;4957;51.412;6.724;2023-04-25T02:19:28;9.00;96.90
9837;DHT22;4957;51.412;6.724;2023-04-25T02:21:53;9.00;96.90
9837;DHT22;4957;51.412;6.724;2023-04-25T02:24:19;9.00;96.90
9837;DHT22;4957;51.412;6.724;2023-04-25T02:26:45;8.90;96.90
9837;DHT22;4957;51.412;6.724;2023-04-25T02:29:12;9.00;97.00
9837;DHT22;4957;51.412;6.724;2023-04-25T02:31:38;9.00;97.00
9837;DHT22;4957;51.412;6.724;2023-04-25T02:34:03;9.00;97.00
9837;DHT22;4957;51.412;6.724;2023-04-25T02:36:30;9.00;97.00
9837;DHT22;4957;51.412;6.724;2023-04-25T02:38:59;9.00;97.00
9837;DHT22;4957;51.412;6.724;2023-04-25T02:41:26;9.00;97.00
9837;DHT22;4957;51.412;6.724;2023-04-25T02:43:52;9.00;97.00
9837;DHT22;4957;51.412;6.724;2023-04-25T02:46:17;9.00;97.00
9837;DHT22;4957;51.412;6.724;2023-04-25T02:48:43;9.00;97.10
9837;DHT22;4957;51.412;6.724;2023-04-25T02:51:09;9.00;97.00
9837;DHT22;4957;51.412;6.724;2023-04-25T02:53:34;9.00;97.10
9837;DHT22;4957;51.412;6.724;2023-04-25T02:56:01;9.00;97.10
9837;DHT22;4957;51.412;6.724;2023-04-25T02:58:26;9.00;97.10
9837;DHT22;4957;51.412;6.724;2023-04-25T03:00:52;9.00;97.10
9837;DHT22;4957;51.412;6.724;2023-04-25T03:03:18;9.00;97.20
9837;DHT22;4957;51.412;6.724;2023-04-25T03:05:50;9.00;97.20
9837;DHT22;4957;51.412;6.724;2023-04-25T03:08:16;9.00;97.20
9837;DHT22;4957;51.412;6.724;2023-04-25T03:10:42;9.00;97.20
9837;DHT22;4957;51.412;6.724;2023-04-25T03:13:08;9.00;97.20
9837;DHT22;4957;51.412;6.724;2023-04-25T03:15:35;9.00;97.20
9837;DHT22;4957;51.412;6.724;2023-04-25T03:18:01;9.00;97.20
9837;DHT22;4957;51.412;6.724;2023-04-25T03:20:26;9.00;97.20
9837;DHT22;4957;51.412;6.724;2023-04-25T03:22:52;9.00;97.20
9837;DHT22;4957;51.412;6.724;2023-04-25T03:25:18;9.00;97.20
9837;DHT22;4957;51.412;6.724;2023-04-25T03:27:44;9.00;97.20
9837;DHT22;4957;51.412;6.724;2023-04-25T03:30:09;8.90;97.10
9837;DHT22;4957;51.412;6.724;2023-04-25T03:32:35;8.90;97.10
9837;DHT22;4957;51.412;6.724;2023-04-25T03:35:01;8.90;97.10
9837;DHT22;4957;51.412;6.724;2023-04-25T03:37:26;8.90;97.10
9837;DHT22;4957;51.412;6.724;2023-04-25T03:39:52;8.90;97.10
9837;DHT22;4957;51.412;6.724;2023-04-25T03:42:18;8.90;97.10
9837;DHT22;4957;51.412;6.724;2023-04-25T03:44:44;8.90;97.10
9837;DHT22;4957;51.412;6.724;2023-04-25T03:47:09;8.90;97.10
9837;DHT22;4957;51.412;6.724;2023-04-25T03:49:35;8.90;97.10
9837;DHT22;4957;51.412;6.724;2023-04-25T03:52:02;8.90;97.10
9837;DHT22;4957;51.412;6.724;2023-04-25T03:54:27;8.90;97.10
9837;DHT22;4957;51.412;6.724;2023-04-25T03:56:53;8.90;97.10
9837;DHT22;4957;51.412;6.724;2023-04-25T03:59:19;8.90;97.10
9837;DHT22;4957;51.412;6.724;2023-04-25T04:01:44;8.90;97.20
9837;DHT22;4957;51.412;6.724;2023-04-25T04:04:10;8.90;97.20
9837;DHT22;4957;51.412;6.724;2023-04-25T04:06:35;8.80;97.20
9837;DHT22;4957;51.412;6.724;2023-04-25T04:09:02;8.80;97.20
9837;DHT22;4957;51.412;6.724;2023-04-25T04:11:28;8.90;97.20
9837;DHT22;4957;51.412;6.724;2023-04-25T04:13:54;8.80;97.20
9837;DHT22;4957;51.412;6.724;2023-04-25T04:16:20;8.80;97.10
9837;DHT22;4957;51.412;6.724;2023-04-25T04:18:46;8.80;97.10
9837;DHT22;4957;51.412;6.724;2023-04-25T04:21:11;8.80;97.10
9837;DHT22;4957;51.412;6.724;2023-04-25T04:23:37;8.80;97.10
9837;DHT22;4957;51.412;6.724;2023-04-25T04:26:03;8.80;97.10
9837;DHT22;4957;51.412;6.724;2023-04-25T04:28:29;8.80;97.40
9837;DHT22;4957;51.412;6.724;2023-04-25T04:30:55;8.80;97.10
9837;DHT22;4957;51.412;6.724;2023-04-25T04:33:21;8.70;97.00
9837;DHT22;4957;51.412;6.724;2023-04-25T04:35:46;8.70;97.00
9837;DHT22;4957;51.412;6.724;2023-04-25T04:38:13;8.70;97.00
9837;DHT22;4957;51.412;6.724;2023-04-25T04:40:41;8.70;97.00
9837;DHT22;4957;51.412;6.724;2023-04-25T04:43:08;8.70;97.00
9837;DHT22;4957;51.412;6.724;2023-04-25T04:45:36;8.70;97.00
9837;DHT22;4957;51.412;6.724;2023-04-25T04:48:07;8.70;97.00
9837;DHT22;4957;51.412;6.724;2023-04-25T04:50:34;8.70;97.00
9837;DHT22;4957;51.412;6.724;2023-04-25T04:53:01;8.60;97.00
9837;DHT22;4957;51.412;6.724;2023-04-25T04:55:27;8.60;97.00
9837;DHT22;4957;51.412;6.724;2023-04-25T04:57:53;8.60;97.00
9837;DHT22;4957;51.412;6.724;2023-04-25T05:00:18;8.60;97.00
9837;DHT22;4957;51.412;6.724;2023-04-25T05:02:46;8.60;97.00
9837;DHT22;4957;51.412;6.724;2023-04-25T05:05:11;8.60;97.00
9837;DHT22;4957;51.412;6.724;2023-04-25T05:07:37;8.60;97.00
9837;DHT22;4957;51.412;6.724;2023-04-25T05:10:03;8.60;97.00
9837;DHT22;4957;51.412;6.724;2023-04-25T05:12:29;8.50;96.90
9837;DHT22;4957;51.412;6.724;2023-04-25T05:14:55;8.50;96.90
9837;DHT22;4957;51.412;6.724;2023-04-25T05:17:21;8.50;96.90
9837;DHT22;4957;51.412;6.724;2023-04-25T05:19:47;8.50;96.90
9837;DHT22;4957;51.412;6.724;2023-04-25T05:22:12;8.50;96.90
9837;DHT22;4957;51.412;6.724;2023-04-25T05:24:38;8.50;97.00
9837;DHT22;4957;51.412;6.724;2023-04-25T05:27:04;8.50;97.00
9837;DHT22;4957;51.412;6.724;2023-04-25T05:29:31;8.50;97.10
9837;DHT22;4957;51.412;6.724;2023-04-25T05:31:56;8.50;97.20
9837;DHT22;4957;51.412;6.724;2023-04-25T05:34:22;8.50;97.30
9837;DHT22;4957;51.412;6.724;2023-04-25T05:36:47;8.50;97.30
9837;DHT22;4957;51.412;6.724;2023-04-25T05:39:15;8.50;97.40
9837;DHT22;4957;51.412;6.724;2023-04-25T05:41:42;8.60;97.60
9837;DHT22;4957;51.412;6.724;2023-04-25T05:44:07;8.60;97.60
9837;DHT22;4957;51.412;6.724;2023-04-25T05:46:33;8.60;97.60
9837;DHT22;4957;51.412;6.724;2023-04-25T05:48:59;8.60;98.00
9837;DHT22;4957;51.412;6.724;2023-04-25T05:51:25;8.70;97.70
9837;DHT22;4957;51.412;6.724;2023-04-25T05:53:51;8.70;97.70
9837;DHT22;4957;51.412;6.724;2023-04-25T05:56:17;8.70;97.70
9837;DHT22;4957;51.412;6.724;2023-04-25T05:58:42;8.70;97.70
9837;DHT22;4957;51.412;6.724;2023-04-25T06:01:08;8.70;97.70
9837;DHT22;4957;51.412;6.724;2023-04-25T06:03:34;8.80;97.70
9837;DHT22;4957;51.412;6.724;2023-04-25T06:06:00;8.80;97.70
9837;DHT22;4957;51.412;6.724;2023-04-25T06:08:26;8.80;97.70
9837;DHT22;4957;51.412;6.724;2023-04-25T06:10:51;8.90;97.70
9837;DHT22;4957;51.412;6.724;2023-04-25T06:13:17;8.90;97.70
9837;DHT22;4957;51.412;6.724;2023-04-25T06:15:43;8.90;97.70
9837;DHT22;4957;51.412;6.724;2023-04-25T06:18:08;9.00;97.80
9837;DHT22;4957;51.412;6.724;2023-04-25T06:20:34;9.00;97.80
9837;DHT22;4957;51.412;6.724;2023-04-25T06:23:00;9.00;97.80
9837;DHT22;4957;51.412;6.724;2023-04-25T06:25:26;9.00;97.80
9837;DHT22;4957;51.412;6.724;2023-04-25T06:27:51;9.10;97.80
9837;DHT22;4957;51.412;6.724;2023-04-25T06:30:17;9.10;97.90
9837;DHT22;4957;51.412;6.724;2023-04-25T06:32:47;9.10;97.90
9837;DHT22;4957;51.412;6.724;2023-04-25T06:35:13;9.20;98.00
9837;DHT22;4957;51.412;6.724;2023-04-25T06:37:39;9.20;98.00
9837;DHT22;4957;51.412;6.724;2023-04-25T06:40:05;9.30;98.40
9837;DHT22;4957;51.412;6.724;2023-04-25T06:42:31;9.40;98.10
9837;DHT22;4957;51.412;6.724;2023-04-25T06:44:56;9.40;98.10
9837;DHT22;4957;51.412;6.724;2023-04-25T06:47:22;9.50;98.10
9837;DHT22;4957;51.412;6.724;2023-04-25T06:49:48;9.60;98.00
9837;DHT22;4957;51.412;6.724;2023-04-25T06:52:13;9.60;98.00
9837;DHT22;4957;51.412;6.724;2023-04-25T06:54:39;9.70;98.10
9837;DHT22;4957;51.412;6.724;2023-04-25T06:57:05;9.80;98.00
9837;DHT22;4957;51.412;6.724;2023-04-25T06:59:30;9.90;98.00
9837;DHT22;4957;51.412;6.724;2023-04-25T07:01:56;10.00;97.30
9837;DHT22;4957;51.412;6.724;2023-04-25T07:04:22;10.10;97.20
9837;DHT22;4957;51.412;6.724;2023-04-25T07:06:47;10.20;97.20
9837;DHT22;4957;51.412;6.724;2023-04-25T07:09:14;10.30;97.10
9837;DHT22;4957;51.412;6.724;2023-04-25T07:11:40;10.40;97.00
9837;DHT22;4957;51.412;6.724;2023-04-25T07:14:06;10.40;96.90
9837;DHT22;4957;51.412;6.724;2023-04-25T07:16:31;10.50;96.90
9837;DHT22;4957;51.412;6.724;2023-04-25T07:18:57;10.60;97.00
9837;DHT22;4957;51.412;6.724;2023-04-25T07:21:22;10.70;97.10
9837;DHT22;4957;51.412;6.724;2023-04-25T07:23:48;10.80;97.20
9837;DHT22;4957;51.412;6.724;2023-04-25T07:26:14;11.00;97.20
9837;DHT22;4957;51.412;6.724;2023-04-25T07:28:39;11.10;97.10
9837;DHT22;4957;51.412;6.724;2023-04-25T07:31:05;11.30;97.10
9837;DHT22;4957;51.412;6.724;2023-04-25T07:33:31;11.40;96.90
9837;DHT22;4957;51.412;6.724;2023-04-25T07:35:56;11.50;96.70
9837;DHT22;4957;51.412;6.724;2023-04-25T07:38:22;11.70;96.70
9837;DHT22;4957;51.412;6.724;2023-04-25T07:40:51;11.80;96.50
9837;DHT22;4957;51.412;6.724;2023-04-25T07:43:16;12.00;96.30
9837;DHT22;4957;51.412;6.724;2023-04-25T07:45:43;12.20;96.10
9837;DHT22;4957;51.412;6.724;2023-04-25T07:48:09;12.30;96.00
9837;DHT22;4957;51.412;6.724;2023-04-25T07:50:35;12.40;95.80
9837;DHT22;4957;51.412;6.724;2023-04-25T07:53:01;12.60;95.60
9837;DHT22;4957;51.412;6.724;2023-04-25T07:55:27;12.70;95.40
9837;DHT22;4957;51.412;6.724;2023-04-25T07:57:53;12.90;95.30
9837;DHT22;4957;51.412;6.724;2023-04-25T08:00:19;13.00;95.20
9837;DHT22;4957;51.412;6.724;2023-04-25T08:02:45;13.20;95.10
9837;DHT22;4957;51.412;6.724;2023-04-25T08:05:11;13.40;94.90
9837;DHT22;4957;51.412;6.724;2023-04-25T08:07:40;13.50;94.60
9837;DHT22;4957;51.412;6.724;2023-04-25T08:10:08;13.70;94.20
9837;DHT22;4957;51.412;6.724;2023-04-25T08:12:33;13.80;93.90
9837;DHT22;4957;51.412;6.724;2023-04-25T08:14:59;13.90;93.60
9837;DHT22;4957;51.412;6.724;2023-04-25T08:17:25;13.90;93.20
9837;DHT22;4957;51.412;6.724;2023-04-25T08:19:50;14.00;93.00
9837;DHT22;4957;51.412;6.724;2023-04-25T08:22:16;14.10;92.90
9837;DHT22;4957;51.412;6.724;2023-04-25T08:24:42;14.10;92.90
9837;DHT22;4957;51.412;6.724;2023-04-25T08:27:08;14.30;92.80
9837;DHT22;4957;51.412;6.724;2023-04-25T08:29:34;14.40;92.60
9837;DHT22;4957;51.412;6.724;2023-04-25T08:32:00;14.60;92.40
9837;DHT22;4957;51.412;6.724;2023-04-25T08:34:26;14.70;92.20
9837;DHT22;4957;51.412;6.724;2023-04-25T08:36:52;14.80;91.70
9837;DHT22;4957;51.412;6.724;2023-04-25T08:39:18;15.00;91.30
9837;DHT22;4957;51.412;6.724;2023-04-25T08:41:44;15.20;90.90
9837;DHT22;4957;51.412;6.724;2023-04-25T08:44:11;15.30;90.60
9837;DHT22;4957;51.412;6.724;2023-04-25T08:46:40;15.50;90.00
9837;DHT22;4957;51.412;6.724;2023-04-25T08:49:07;15.60;89.50
9837;DHT22;4957;51.412;6.724;2023-04-25T08:51:36;15.80;88.50
9837;DHT22;4957;51.412;6.724;2023-04-25T08:54:14;15.80;87.50
9837;DHT22;4957;51.412;6.724;2023-04-25T08:56:44;15.90;86.10
9837;DHT22;4957;51.412;6.724;2023-04-25T08:59:12;16.00;86.50
9837;DHT22;4957;51.412;6.724;2023-04-25T09:01:37;16.00;86.60
9837;DHT22;4957;51.412;6.724;2023-04-25T09:04:03;16.00;85.60
9837;DHT22;4957;51.412;6.724;2023-04-25T09:06:29;16.00;85.20
9837;DHT22;4957;51.412;6.724;2023-04-25T09:09:06;16.00;84.40
9837;DHT22;4957;51.412;6.724;2023-04-25T09:11:34;16.00;83.10
9837;DHT22;4957;51.412;6.724;2023-04-25T09:14:19;16.10;83.40
9837;DHT22;4957;51.412;6.724;2023-04-25T09:19:24;16.30;82.60
9837;DHT22;4957;51.412;6.724;2023-04-25T09:21:50;16.40;82.00
9837;DHT22;4957;51.412;6.724;2023-04-25T09:27:12;16.70;80.00
9837;DHT22;4957;51.412;6.724;2023-04-25T09:29:39;16.80;79.20
9837;DHT22;4957;51.412;6.724;2023-04-25T09:32:23;17.00;79.40
9837;DHT22;4957;51.412;6.724;2023-04-25T09:34:53;17.10;78.70
9837;DHT22;4957;51.412;6.724;2023-04-25T09:37:27;17.20;77.80
9837;DHT22;4957;51.412;6.724;2023-04-25T09:39:55;17.40;76.90
9837;DHT22;4957;51.412;6.724;2023-04-25T09:42:25;17.50;78.90
9837;DHT22;4957;51.412;6.724;2023-04-25T09:44:53;17.60;77.70
9837;DHT22;4957;51.412;6.724;2023-04-25T09:47:20;17.60;76.60
9837;DHT22;4957;51.412;6.724;2023-04-25T09:49:48;17.70;75.40
9837;DHT22;4957;51.412;6.724;2023-04-25T09:52:18;17.80;73.90
9837;DHT22;4957;51.412;6.724;2023-04-25T09:54:44;17.80;72.80
9837;DHT22;4957;51.412;6.724;2023-04-25T09:57:13;17.80;72.40
9837;DHT22;4957;51.412;6.724;2023-04-25T09:59:46;17.90;72.10
9837;DHT22;4957;51.412;6.724;2023-04-25T10:02:15;17.90;71.20
9837;DHT22;4957;51.412;6.724;2023-04-25T10:04:42;17.90;71.20
9837;DHT22;4957;51.412;6.724;2023-04-25T10:07:08;17.90;71.90
9837;DHT22;4957;51.412;6.724;2023-04-25T10:09:37;17.90;71.40
9837;DHT22;4957;51.412;6.724;2023-04-25T10:12:05;18.00;69.80
9837;DHT22;4957;51.412;6.724;2023-04-25T10:14:31;18.00;69.90
9837;DHT22;4957;51.412;6.724;2023-04-25T10:16:58;18.10;68.80
9837;DHT22;4957;51.412;6.724;2023-04-25T10:19:25;18.30;68.50
9837;DHT22;4957;51.412;6.724;2023-04-25T10:22:03;18.40;68.30
9837;DHT22;4957;51.412;6.724;2023-04-25T10:24:30;18.50;67.60
9837;DHT22;4957;51.412;6.724;2023-04-25T10:26:57;18.60;70.40
9837;DHT22;4957;51.412;6.724;2023-04-25T10:29:27;18.60;66.90
9837;DHT22;4957;51.412;6.724;2023-04-25T10:31:53;18.70;65.30
9837;DHT22;4957;51.412;6.724;2023-04-25T10:34:19;18.70;67.10
9837;DHT22;4957;51.412;6.724;2023-04-25T10:36:50;18.60;66.30
9837;DHT22;4957;51.412;6.724;2023-04-25T10:39:24;18.60;66.00
9837;DHT22;4957;51.412;6.724;2023-04-25T10:42:02;18.60;65.90
9837;DHT22;4957;51.412;6.724;2023-04-25T10:44:31;18.70;64.50
9837;DHT22;4957;51.412;6.724;2023-04-25T10:46:59;18.80;67.00
9837;DHT22;4957;51.412;6.724;2023-04-25T10:52:16;19.10;64.50
9837;DHT22;4957;51.412;6.724;2023-04-25T10:54:46;19.30;61.70
9837;DHT22;4957;51.412;6.724;2023-04-25T10:57:43;19.50;65.10
9837;DHT22;4957;51.412;6.724;2023-04-25T11:00:16;19.60;60.40
9837;DHT22;4957;51.412;6.724;2023-04-25T11:02:43;19.60;60.50
9837;DHT22;4957;51.412;6.724;2023-04-25T11:05:54;19.70;61.00
9837;DHT22;4957;51.412;6.724;2023-04-25T11:08:02;19.70;60.70
9837;DHT22;4957;51.412;6.724;2023-04-25T11:10:33;19.60;61.50
9837;DHT22;4957;51.412;6.724;2023-04-25T11:13:00;19.60;61.40
9837;DHT22;4957;51.412;6.724;2023-04-25T11:15:27;19.50;60.70
9837;DHT22;4957;51.412;6.724;2023-04-25T11:17:54;19.40;60.90
9837;DHT22;4957;51.412;6.724;2023-04-25T11:20:21;19.30;61.80
9837;DHT22;4957;51.412;6.724;2023-04-25T11:22:47;19.20;63.00
9837;DHT22;4957;51.412;6.724;2023-04-25T11:25:15;19.10;62.50
9837;DHT22;4957;51.412;6.724;2023-04-25T11:27:54;19.00;62.90
9837;DHT22;4957;51.412;6.724;2023-04-25T11:30:20;18.90;61.60
9837;DHT22;4957;51.412;6.724;2023-04-25T11:32:46;18.80;62.90
9837;DHT22;4957;51.412;6.724;2023-04-25T11:35:13;18.70;63.30
9837;DHT22;4957;51.412;6.724;2023-04-25T11:37:39;18.60;62.60
9837;DHT22;4957;51.412;6.724;2023-04-25T11:40:07;18.50;63.00
9837;DHT22;4957;51.412;6.724;2023-04-25T11:42:34;18.40;62.60
9837;DHT22;4957;51.412;6.724;2023-04-25T11:45:00;18.30;63.60
9837;DHT22;4957;51.412;6.724;2023-04-25T11:47:33;18.10;63.90
9837;DHT22;4957;51.412;6.724;2023-04-25T11:50:00;18.10;62.90
9837;DHT22;4957;51.412;6.724;2023-04-25T11:52:43;18.00;63.30
9837;DHT22;4957;51.412;6.724;2023-04-25T11:55:13;17.90;61.80
9837;DHT22;4957;51.412;6.724;2023-04-25T11:57:40;17.80;63.60
9837;DHT22;4957;51.412;6.724;2023-04-25T12:00:17;17.70;65.00
9837;DHT22;4957;51.412;6.724;2023-04-25T12:02:45;17.60;64.70
9837;DHT22;4957;51.412;6.724;2023-04-25T12:05:14;17.50;65.60
9837;DHT22;4957;51.412;6.724;2023-04-25T12:07:40;17.30;66.70
9837;DHT22;4957;51.412;6.724;2023-04-25T12:10:14;17.30;67.00
9837;DHT22;4957;51.412;6.724;2023-04-25T12:12:45;17.20;67.20
9837;DHT22;4957;51.412;6.724;2023-04-25T12:15:23;17.00;67.30
9837;DHT22;4957;51.412;6.724;2023-04-25T12:17:50;17.00;69.10
9837;DHT22;4957;51.412;6.724;2023-04-25T12:20:23;16.90;69.20
9837;DHT22;4957;51.412;6.724;2023-04-25T12:22:50;16.80;70.00
9837;DHT22;4957;51.412;6.724;2023-04-25T12:28:20;16.70;70.50
9837;DHT22;4957;51.412;6.724;2023-04-25T12:31:03;16.70;70.80
9837;DHT22;4957;51.412;6.724;2023-04-25T12:33:33;16.70;71.00
9837;DHT22;4957;51.412;6.724;2023-04-25T12:36:00;16.80;71.20
9837;DHT22;4957;51.412;6.724;2023-04-25T12:38:30;16.80;71.30
9837;DHT22;4957;51.412;6.724;2023-04-25T12:40:59;16.70;71.10
9837;DHT22;4957;51.412;6.724;2023-04-25T12:43:25;16.80;69.80
9837;DHT22;4957;51.412;6.724;2023-04-25T12:45:52;16.80;68.70
9837;DHT22;4957;51.412;6.724;2023-04-25T12:48:19;16.80;68.90
9837;DHT22;4957;51.412;6.724;2023-04-25T12:50:46;16.80;70.20
9837;DHT22;4957;51.412;6.724;2023-04-25T12:53:18;16.80;68.00
9837;DHT22;4957;51.412;6.724;2023-04-25T12:55:45;16.80;66.80
9837;DHT22;4957;51.412;6.724;2023-04-25T12:58:15;16.80;67.60
9837;DHT22;4957;51.412;6.724;2023-04-25T13:00:41;16.90;65.90
9837;DHT22;4957;51.412;6.724;2023-04-25T13:03:08;17.00;67.30
9837;DHT22;4957;51.412;6.724;2023-04-25T13:05:34;17.00;67.10
9837;DHT22;4957;51.412;6.724;2023-04-25T13:08:00;17.00;67.30
9837;DHT22;4957;51.412;6.724;2023-04-25T13:10:25;17.00;67.30
9837;DHT22;4957;51.412;6.724;2023-04-25T13:12:51;17.00;67.30
9837;DHT22;4957;51.412;6.724;2023-04-25T13:15:17;16.90;66.90
9837;DHT22;4957;51.412;6.724;2023-04-25T13:17:42;16.90;66.90
9837;DHT22;4957;51.412;6.724;2023-04-25T13:20:09;16.90;67.20
9837;DHT22;4957;51.412;6.724;2023-04-25T13:22:37;16.80;67.00
9837;DHT22;4957;51.412;6.724;2023-04-25T13:25:03;16.80;66.60
9837;DHT22;4957;51.412;6.724;2023-04-25T13:27:29;16.70;66.60
9837;DHT22;4957;51.412;6.724;2023-04-25T13:29:55;16.60;66.60
9837;DHT22;4957;51.412;6.724;2023-04-25T13:32:21;16.60;65.80
9837;DHT22;4957;51.412;6.724;2023-04-25T13:34:47;16.50;65.30
9837;DHT22;4957;51.412;6.724;2023-04-25T13:37:12;16.50;66.00
9837;DHT22;4957;51.412;6.724;2023-04-25T13:39:38;16.50;65.90
9837;DHT22;4957;51.412;6.724;2023-04-25T13:42:04;16.40;65.00
9837;DHT22;4957;51.412;6.724;2023-04-25T13:44:29;16.40;68.00
9837;DHT22;4957;51.412;6.724;2023-04-25T13:46:55;16.40;66.90
9837;DHT22;4957;51.412;6.724;2023-04-25T13:49:21;16.40;66.10
9837;DHT22;4957;51.412;6.724;2023-04-25T13:51:48;16.40;64.50
9837;DHT22;4957;51.412;6.724;2023-04-25T13:54:14;16.40;64.50
9837;DHT22;4957;51.412;6.724;2023-04-25T13:56:40;16.40;65.00
9837;DHT22;4957;51.412;6.724;2023-04-25T13:59:07;16.40;64.40
9837;DHT22;4957;51.412;6.724;2023-04-25T14:01:33;16.40;63.60
9837;DHT22;4957;51.412;6.724;2023-04-25T14:04:03;16.40;65.00
9837;DHT22;4957;51.412;6.724;2023-04-25T14:06:32;16.30;65.20
9837;DHT22;4957;51.412;6.724;2023-04-25T14:08:58;16.30;65.10
9837;DHT22;4957;51.412;6.724;2023-04-25T14:11:25;16.30;63.40
9837;DHT22;4957;51.412;6.724;2023-04-25T14:13:51;16.30;64.20
9837;DHT22;4957;51.412;6.724;2023-04-25T14:16:17;16.30;62.80
9837;DHT22;4957;51.412;6.724;2023-04-25T14:18:42;16.30;62.40
9837;DHT22;4957;51.412;6.724;2023-04-25T14:21:09;16.30;62.70
9837;DHT22;4957;51.412;6.724;2023-04-25T14:23:35;16.30;61.90
9837;DHT22;4957;51.412;6.724;2023-04-25T14:26:01;16.40;62.60
9837;DHT22;4957;51.412;6.724;2023-04-25T14:28:27;16.40;61.50
9837;DHT22;4957;51.412;6.724;2023-04-25T14:30:52;16.40;61.30
9837;DHT22;4957;51.412;6.724;2023-04-25T14:33:18;16.40;61.10
9837;DHT22;4957;51.412;6.724;2023-04-25T14:35:44;16.50;60.70
9837;DHT22;4957;51.412;6.724;2023-04-25T14:38:09;16.50;60.10
9837;DHT22;4957;51.412;6.724;2023-04-25T14:40:35;16.50;60.00
9837;DHT22;4957;51.412;6.724;2023-04-25T14:43:02;16.50;62.40
9837;DHT22;4957;51.412;6.724;2023-04-25T14:45:28;16.50;62.70
9837;DHT22;4957;51.412;6.724;2023-04-25T14:47:53;16.40;60.40
9837;DHT22;4957;51.412;6.724;2023-04-25T14:50:19;16.40;60.80
9837;DHT22;4957;51.412;6.724;2023-04-25T14:52:45;16.40;62.20
9837;DHT22;4957;51.412;6.724;2023-04-25T14:55:11;16.40;62.70
9837;DHT22;4957;51.412;6.724;2023-04-25T14:57:37;16.30;62.20
9837;DHT22;4957;51.412;6.724;2023-04-25T15:00:07;16.30;62.00
9837;DHT22;4957;51.412;6.724;2023-04-25T15:02:35;16.20;60.40
9837;DHT22;4957;51.412;6.724;2023-04-25T15:05:01;16.20;62.10
9837;DHT22;4957;51.412;6.724;2023-04-25T15:07:28;16.20;60.60
9837;DHT22;4957;51.412;6.724;2023-04-25T15:09:54;16.20;59.70
9837;DHT22;4957;51.412;6.724;2023-04-25T15:12:22;16.30;59.40
9837;DHT22;4957;51.412;6.724;2023-04-25T15:14:47;16.30;59.70
9837;DHT22;4957;51.412;6.724;2023-04-25T15:17:13;16.30;59.10
9837;DHT22;4957;51.412;6.724;2023-04-25T15:19:39;16.30;59.50
9837;DHT22;4957;51.412;6.724;2023-04-25T15:22:05;16.30;60.20
9837;DHT22;4957;51.412;6.724;2023-04-25T15:24:32;16.30;59.60
9837;DHT22;4957;51.412;6.724;2023-04-25T15:26:58;16.30;59.40
9837;DHT22;4957;51.412;6.724;2023-04-25T15:29:23;16.30;59.10
9837;DHT22;4957;51.412;6.724;2023-04-25T15:31:50;16.30;58.40
9837;DHT22;4957;51.412;6.724;2023-04-25T15:34:15;16.30;59.20
9837;DHT22;4957;51.412;6.724;2023-04-25T15:36:41;16.20;59.70
9837;DHT22;4957;51.412;6.724;2023-04-25T15:39:07;16.20;59.40
9837;DHT22;4957;51.412;6.724;2023-04-25T15:41:33;16.20;59.60
9837;DHT22;4957;51.412;6.724;2023-04-25T15:43:59;16.20;59.40
9837;DHT22;4957;51.412;6.724;2023-04-25T15:46:26;16.20;58.40
9837;DHT22;4957;51.412;6.724;2023-04-25T15:48:52;16.20;58.80
9837;DHT22;4957;51.412;6.724;2023-04-25T15:51:18;16.20;58.70
9837;DHT22;4957;51.412;6.724;2023-04-25T15:53:43;16.20;58.80
9837;DHT22;4957;51.412;6.724;2023-04-25T15:56:09;16.20;61.00
9837;DHT22;4957;51.412;6.724;2023-04-25T15:58:35;16.20;59.40
9837;DHT22;4957;51.412;6.724;2023-04-25T16:01:01;16.20;59.10
9837;DHT22;4957;51.412;6.724;2023-04-25T16:03:27;16.20;60.30
9837;DHT22;4957;51.412;6.724;2023-04-25T16:05:53;16.20;59.00
9837;DHT22;4957;51.412;6.724;2023-04-25T16:08:19;16.10;59.70
9837;DHT22;4957;51.412;6.724;2023-04-25T16:10:45;16.10;58.90
9837;DHT22;4957;51.412;6.724;2023-04-25T16:13:11;16.10;58.90
9837;DHT22;4957;51.412;6.724;2023-04-25T16:15:36;16.20;59.10
9837;DHT22;4957;51.412;6.724;2023-04-25T16:18:03;16.10;57.90